KDIK/DIK METAR and TAF weather

Enter ICAO airport designator
Station Type Date Time Source
KDIK METAR 2019/08/19 21:56 UTC NOAA

KDIK 192156Z AUTO 19012KT 10SM CLR 31/13 A2982 RMK AO2 SLP081 T03110133


Station Type Date Time Source
KDIK Decoded METAR 2019/08/19 21:56 UTC NOAA

THEODORE ROOSEVELT REGIONAL, ND, United States (KDIK) 46-48N 102-48W 788M
Aug 19, 2019 - 05:56 PM EDT / 2019.08.19 2156 UTC
Wind: from the S (190 degrees) at 14 MPH (12 KT):0
Visibility: 10 mile(s):0
Sky conditions: clear
Temperature: 88.0 F (31.1 C)
Dew Point: 55.9 F (13.3 C)
Relative Humidity: 33%
Pressure (altimeter): 29.82 in. Hg (1009 hPa)
ob: KDIK 192156Z AUTO 19012KT 10SM CLR 31/13 A2982 RMK AO2 SLP081 T03110133
cycle: 22

Station Type Date Time Source
KDIK TAF 2019/08/19 18:48 UTC NOAA

TAF KDIK 191746Z 1918/2018 19012KT P6SM SKC
FM192300 24013KT P6SM FEW100 SCT250
FM200100 27010KT P6SM VCTS FEW090CB SCT250
FM200300 30008KT P6SM SCT250
FM200900 34010KT P6SM SKC
FM201400 04011KT P6SM FEW100 FEW200

Example: see airport list